Time;durP1;ratioP1;P1;durP2;ratioP2;P2;SDS_P1;SDS_P2;PMS_P1;PMS_P2;Temp;Humidity;BMP_temperature;BMP_pressure;BME280_temperature;BME280_humidity;BME280_pressure;Samples;Min_cycle;Max_cycle;Signal;HPM_P1;HPM_P2
2021/03/07 00:02:04;;;;;;;2.10;2.00;;;;;;;1.85;87.53;101697.91;5071421;28;20179;-72
2021/03/07 00:04:30;;;;;;;1.70;1.60;;;;;;;1.88;86.89;101698.31;5071293;28;20376;-73
2021/03/07 00:06:55;;;;;;;1.40;1.30;;;;;;;1.91;86.67;101699.72;5070726;28;20174;-72
2021/03/07 00:09:20;;;;;;;1.80;1.70;;;;;;;1.94;86.37;101685.78;5071146;28;20170;-73
2021/03/07 00:11:46;;;;;;;1.33;1.27;;;;;;;1.82;86.01;101684.88;5069925;28;20189;-73
2021/03/07 00:14:11;;;;;;;1.90;1.80;;;;;;;1.73;86.08;101685.16;5071052;28;20181;-72
2021/03/07 00:16:36;;;;;;;1.33;1.23;;;;;;;1.63;85.99;101682.16;5070833;28;20675;-72
2021/03/07 00:19:02;;;;;;;1.63;1.53;;;;;;;1.57;86.30;101676.81;5070965;28;20225;-72
2021/03/07 00:21:27;;;;;;;1.70;1.60;;;;;;;1.53;86.38;101684.53;5071020;28;20345;-72
2021/03/07 00:23:52;;;;;;;7.03;1.53;;;;;;;1.47;86.45;101677.34;5071066;28;20254;-72
2021/03/07 00:26:18;;;;;;;2.00;1.90;;;;;;;1.34;86.28;101674.75;5070778;28;20171;-72
2021/03/07 00:28:43;;;;;;;8.20;1.87;;;;;;;1.22;86.94;101673.81;5070993;28;20178;-72
2021/03/07 00:31:08;;;;;;;3.67;1.37;;;;;;;1.15;87.23;101671.97;5071180;28;20181;-72
2021/03/07 00:33:33;;;;;;;3.23;1.00;;;;;;;1.14;87.77;101673.03;5070804;28;20554;-72
2021/03/07 00:35:59;;;;;;;1.83;1.73;;;;;;;1.14;88.32;101664.13;5070850;28;20293;-72
2021/03/07 00:38:24;;;;;;;2.07;1.97;;;;;;;1.11;89.21;101664.56;5070626;28;20197;-72
2021/03/07 00:40:49;;;;;;;1.90;1.80;;;;;;;1.14;89.23;101673.03;5070739;28;20660;-73
2021/03/07 00:43:15;;;;;;;1.90;1.80;;;;;;;1.14;89.07;101672.19;5070901;28;20182;-72
2021/03/07 00:45:40;;;;;;;2.23;1.83;;;;;;;1.08;88.39;101662.31;5070823;28;20178;-72
2021/03/07 00:48:06;;;;;;;2.17;2.07;;;;;;;1.00;88.58;101665.25;5070509;28;20174;-72
2021/03/07 00:50:31;;;;;;;1.97;1.87;;;;;;;0.92;89.08;101662.84;5070743;28;20182;-72
2021/03/07 00:52:57;;;;;;;1.00;1.00;;;;;;;0.78;89.13;101662.13;5070251;28;20213;-72
2021/03/07 00:55:24;;;;;;;1.60;1.50;;;;;;;0.74;89.60;101664.41;5070856;28;20194;-72
2021/03/07 00:57:50;;;;;;;4.70;2.00;;;;;;;0.90;90.14;101657.69;5070384;28;20202;-72
2021/03/07 01:00:23;;;;;;;2.37;1.90;;;;;;;0.86;89.69;101659.97;5070374;28;20976;-72
2021/03/07 01:02:49;;;;;;;2.10;2.00;;;;;;;0.78;89.81;101651.34;5070739;28;20181;-72
2021/03/07 01:05:15;;;;;;;1.87;1.77;;;;;;;0.68;90.04;101651.81;5070684;28;20413;-72
2021/03/07 01:07:41;;;;;;;2.80;2.70;;;;;;;0.65;89.91;101654.94;5070199;28;20175;-72
2021/03/07 01:10:33;;;;;;;1.20;1.10;;;;;;;0.59;89.95;101647.75;5070500;28;20435;-72
2021/03/07 01:12:58;;;;;;;2.10;1.67;;;;;;;0.65;90.38;101646.88;5070725;28;20171;-72
2021/03/07 01:15:29;;;;;;;3.27;2.90;;;;;;;0.69;90.57;101647.25;5070554;28;20470;-72
2021/03/07 01:17:55;;;;;;;1.27;1.27;;;;;;;0.75;90.62;101639.19;5069025;28;20619;-72
2021/03/07 01:20:21;;;;;;;1.80;1.70;;;;;;;0.81;90.65;101640.97;5070457;28;20456;-72
2021/03/07 01:22:47;;;;;;;1.90;1.80;;;;;;;0.88;90.72;101640.97;5070447;28;20425;-72
2021/03/07 01:25:12;;;;;;;2.03;1.90;;;;;;;1.03;90.43;101643.34;5070421;28;20170;-72
2021/03/07 01:27:38;;;;;;;1.87;1.77;;;;;;;1.12;90.17;101639.31;5069905;28;20639;-73
2021/03/07 01:30:08;;;;;;;1.53;1.43;;;;;;;1.12;89.51;101634.75;5070357;28;20631;-72
2021/03/07 01:32:34;;;;;;;0.93;0.93;;;;;;;1.31;89.11;101629.44;5070407;28;20793;-72
2021/03/07 01:34:59;;;;;;;2.17;2.03;;;;;;;1.39;88.15;101621.88;5070522;28;20546;-72
2021/03/07 01:37:24;;;;;;;0.77;0.77;;;;;;;1.46;87.88;101624.53;5069728;28;20232;-72
2021/03/07 01:39:50;;;;;;;0.90;0.90;;;;;;;1.49;87.32;101626.78;5069948;28;20202;-72
2021/03/07 01:42:15;;;;;;;1.63;1.53;;;;;;;1.54;87.41;101618.84;5070220;28;20178;-73
2021/03/07 01:44:41;;;;;;;2.57;1.07;;;;;;;1.59;87.26;101616.31;5070348;28;20249;-72
2021/03/07 01:47:06;;;;;;;0.20;0.20;;;;;;;1.64;86.99;101621.84;5069844;28;20265;-72
2021/03/07 01:49:32;;;;;;;0.73;0.73;;;;;;;1.62;86.62;101615.88;5070310;28;20215;-72
2021/03/07 01:51:57;;;;;;;1.40;1.40;;;;;;;1.66;86.29;101611.69;5070291;28;20530;-73
2021/03/07 01:54:23;;;;;;;2.47;2.27;;;;;;;1.63;86.43;101603.22;5070123;28;20249;-72
2021/03/07 01:56:52;;;;;;;0.90;0.90;;;;;;;1.63;86.30;101600.53;5069731;28;20167;-72
2021/03/07 01:59:21;;;;;;;0.63;0.63;;;;;;;1.62;86.10;101591.63;5069992;28;20267;-73
2021/03/07 02:01:48;;;;;;;1.03;1.03;;;;;;;1.60;85.67;101599.13;5070251;28;20420;-73
2021/03/07 02:04:13;;;;;;;0.83;0.83;;;;;;;1.57;85.22;101596.03;5070738;28;20405;-72
2021/03/07 02:06:38;;;;;;;1.10;1.00;;;;;;;1.55;85.47;101593.56;5073116;28;20412;-73
2021/03/07 02:09:04;;;;;;;0.50;0.50;;;;;;;1.52;85.48;101588.63;5073618;28;20166;-72
2021/03/07 02:11:30;;;;;;;1.83;1.50;;;;;;;1.47;85.81;101583.09;5073492;28;20515;-73
2021/03/07 02:13:56;;;;;;;2.70;2.40;;;;;;;1.46;86.11;101579.59;5073341;28;20224;-73
2021/03/07 02:16:24;;;;;;;0.33;0.33;;;;;;;1.43;85.65;101581.88;5073081;28;20563;-72
2021/03/07 02:18:52;;;;;;;0.37;0.37;;;;;;;1.37;86.36;101580.09;5073304;28;20460;-72
2021/03/07 02:21:28;;;;;;;1.33;1.33;;;;;;;1.28;85.93;101584.09;5073455;28;20814;-73
2021/03/07 02:24:05;;;;;;;1.03;1.03;;;;;;;1.25;86.49;101571.09;5073485;28;20416;-72
2021/03/07 02:26:37;;;;;;;1.67;1.57;;;;;;;1.21;86.90;101576.09;5073131;28;20397;-72
2021/03/07 02:29:04;;;;;;;0.93;0.93;;;;;;;1.18;86.99;101571.97;5073296;28;20603;-73
2021/03/07 02:31:30;;;;;;;0.40;0.40;;;;;;;1.15;86.98;101567.03;5073166;28;20920;-72
2021/03/07 02:34:03;;;;;;;1.73;1.63;;;;;;;1.12;87.85;101567.47;5073674;28;20409;-72
2021/03/07 02:36:32;;;;;;;0.20;0.20;;;;;;;1.11;87.77;101571.22;5072704;28;20193;-72
2021/03/07 02:39:00;;;;;;;0.20;0.20;;;;;;;1.13;87.61;101562.91;5072959;28;20448;-72
2021/03/07 02:41:31;;;;;;;0.77;0.77;;;;;;;1.10;88.12;101563.34;5071547;28;20789;-72
2021/03/07 02:43:59;;;;;;;0.40;0.40;;;;;;;1.08;87.84;101555.50;5072935;28;20405;-72
2021/03/07 02:46:25;;;;;;;1.00;1.00;;;;;;;1.06;88.20;101560.28;5072489;28;20439;-72
2021/03/07 02:48:55;;;;;;;0.70;0.53;;;;;;;1.07;88.31;101558.41;5072953;28;20581;-72
2021/03/07 02:51:25;;;;;;;0.47;0.47;;;;;;;1.07;87.79;101551.19;5073223;28;20466;-72
2021/03/07 02:53:52;;;;;;;1.67;1.57;;;;;;;1.08;87.94;101550.13;5072732;28;20416;-72
2021/03/07 02:56:20;;;;;;;1.60;1.50;;;;;;;1.05;87.44;101539.81;5071103;28;20428;-72
2021/03/07 02:58:47;;;;;;;3.80;2.67;;;;;;;1.04;87.72;101545.41;5072460;28;20575;-72
2021/03/07 03:01:17;;;;;;;2.43;0.97;;;;;;;1.02;87.58;101537.56;5073016;28;20435;-72
2021/03/07 03:03:44;;;;;;;3.53;1.50;;;;;;;1.04;87.64;101535.47;5072822;28;20861;-73
2021/03/07 03:06:11;;;;;;;0.97;0.90;;;;;;;1.03;87.14;101531.13;5072242;28;20451;-73
2021/03/07 03:08:39;;;;;;;1.00;1.00;;;;;;;1.03;87.21;101531.13;5072347;28;20546;-73
2021/03/07 03:11:06;;;;;;;1.80;1.70;;;;;;;1.00;87.09;101525.34;5072544;28;20421;-72
2021/03/07 03:13:34;;;;;;;0.97;0.93;;;;;;;0.97;86.95;101518.56;5072260;28;20421;-72
2021/03/07 03:16:00;;;;;;;0.10;0.10;;;;;;;0.96;87.24;101516.09;5072019;28;20772;-73
2021/03/07 03:18:28;;;;;;;0.70;0.70;;;;;;;0.94;87.48;101515.50;5071951;28;20443;-72
2021/03/07 03:20:58;;;;;;;0.67;0.67;;;;;;;0.96;87.89;101518.78;5072340;28;20808;-72
2021/03/07 03:23:24;;;;;;;0.40;0.40;;;;;;;0.95;87.91;101514.44;5072301;28;20416;-73
2021/03/07 03:25:50;;;;;;;4.70;1.77;;;;;;;0.95;87.83;101509.88;5071523;28;20498;-72
2021/03/07 03:28:18;;;;;;;1.23;1.23;;;;;;;0.93;88.28;101511.97;5070309;28;20684;-72
2021/03/07 03:30:43;;;;;;;0.87;0.87;;;;;;;0.92;88.40;101507.66;5071625;28;20419;-72
2021/03/07 03:33:08;;;;;;;0.83;0.83;;;;;;;0.94;88.15;101510.94;5070377;28;20817;-72
2021/03/07 03:35:33;;;;;;;1.30;1.20;;;;;;;0.92;88.45;101507.66;5072024;28;20662;-73
2021/03/07 03:37:59;;;;;;;1.40;1.30;;;;;;;0.92;88.74;101501.44;5071908;28;20649;-73
2021/03/07 03:40:27;;;;;;;2.23;1.70;;;;;;;0.90;88.91;101501.66;5071854;28;20206;-72
2021/03/07 03:42:58;;;;;;;0.70;0.70;;;;;;;0.89;88.99;101506.22;5071924;28;20543;-73
2021/03/07 03:45:26;;;;;;;0.63;0.63;;;;;;;0.89;88.66;101506.22;5073606;28;20428;-73
2021/03/07 03:47:57;;;;;;;0.93;0.93;;;;;;;0.85;88.93;101506.88;5074922;28;20452;-72
2021/03/07 03:50:23;;;;;;;2.10;2.00;;;;;;;0.83;88.95;101506.28;5072879;28;20983;-73
2021/03/07 03:52:51;;;;;;;0.87;0.87;;;;;;;0.78;89.20;101503.44;5071856;28;20428;-72
2021/03/07 03:55:21;;;;;;;1.27;1.27;;;;;;;0.77;89.78;101505.28;5070257;28;20951;-72
2021/03/07 03:57:51;;;;;;;1.03;1.03;;;;;;;0.79;89.97;101505.06;5071128;28;20440;-73
2021/03/07 04:00:21;;;;;;;0.97;0.97;;;;;;;0.81;89.66;101500.28;5071343;28;20571;-72
2021/03/07 04:02:47;;;;;;;0.73;0.73;;;;;;;0.81;89.43;101503.81;5071415;28;20764;-72
2021/03/07 04:05:17;;;;;;;3.20;2.50;;;;;;;0.82;89.32;101504.63;5071330;28;20425;-72
2021/03/07 04:07:44;;;;;;;1.90;1.70;;;;;;;0.80;89.25;101502.16;5070875;28;20175;-72
2021/03/07 04:10:11;;;;;;;1.60;1.60;;;;;;;0.80;88.94;101506.72;5071337;28;20446;-73
2021/03/07 04:12:39;;;;;;;2.67;2.03;;;;;;;0.77;88.92;101491.03;5071231;28;20433;-72
2021/03/07 04:15:07;;;;;;;1.43;0.93;;;;;;;0.79;88.71;101491.63;5071064;28;20428;-72
2021/03/07 04:17:32;;;;;;;0.73;0.73;;;;;;;0.82;88.38;101488.50;5070661;28;20421;-73
2021/03/07 04:19:58;;;;;;;1.10;1.10;;;;;;;0.84;88.47;101505.22;5070987;28;20952;-73
2021/03/07 04:22:24;;;;;;;1.50;0.67;;;;;;;0.84;87.96;101497.16;5071023;28;20200;-73
2021/03/07 04:24:50;;;;;;;0.93;0.93;;;;;;;0.86;88.45;101497.75;5071178;28;20174;-72
2021/03/07 04:27:15;;;;;;;0.50;0.50;;;;;;;0.88;88.19;101498.38;5070099;28;20424;-73
2021/03/07 04:29:42;;;;;;;2.00;1.67;;;;;;;0.87;87.93;101497.56;5070921;28;20182;-72
2021/03/07 04:32:09;;;;;;;2.20;2.10;;;;;;;0.86;87.52;101498.56;5071015;28;20175;-73
2021/03/07 04:34:35;;;;;;;1.90;1.80;;;;;;;0.86;87.56;101501.25;5070767;28;20417;-73
2021/03/07 04:37:02;;;;;;;1.27;1.17;;;;;;;0.87;87.30;101500.25;5070523;28;20430;-73
2021/03/07 04:39:28;;;;;;;0.27;0.27;;;;;;;0.88;87.02;101495.69;5070845;28;20468;-73
2021/03/07 04:41:53;;;;;;;0.53;0.53;;;;;;;0.86;86.94;101489.69;5070797;28;20432;-72
2021/03/07 04:44:18;;;;;;;0.50;0.50;;;;;;;0.86;86.95;101490.50;5070962;28;20273;-72
2021/03/07 04:46:44;;;;;;;1.20;1.10;;;;;;;0.86;87.12;101482.44;5070463;28;20220;-73
2021/03/07 04:49:09;;;;;;;1.13;0.90;;;;;;;0.88;86.95;101477.69;5070571;28;20182;-72
2021/03/07 04:51:35;;;;;;;0.37;0.37;;;;;;;0.87;86.99;101473.34;5070807;28;20178;-73
2021/03/07 04:54:00;;;;;;;0.47;0.47;;;;;;;0.87;86.42;101477.91;5070730;28;20179;-73
2021/03/07 04:56:30;;;;;;;0.83;0.83;;;;;;;0.88;86.69;101472.31;5070323;28;20185;-73
2021/03/07 04:58:56;;;;;;;0.93;0.93;;;;;;;0.87;86.61;101467.16;5070570;28;20209;-73
2021/03/07 05:01:21;;;;;;;5.67;1.97;;;;;;;0.87;86.46;101465.28;5070519;28;20425;-73
2021/03/07 05:03:46;;;;;;;0.57;0.53;;;;;;;0.86;86.12;101468.16;5070620;28;20429;-73
2021/03/07 05:06:12;;;;;;;3.67;1.70;;;;;;;0.87;86.42;101464.47;5070114;28;20175;-73
2021/03/07 05:08:38;;;;;;;0.30;0.30;;;;;;;0.83;85.88;101458.69;5070487;28;20175;-73
2021/03/07 05:11:03;;;;;;;0.40;0.40;;;;;;;0.83;86.14;101456.00;5070302;28;20190;-72
2021/03/07 05:13:29;;;;;;;1.20;1.10;;;;;;;0.80;86.62;101448.38;5070473;28;20638;-73
2021/03/07 05:15:54;;;;;;;1.17;1.07;;;;;;;0.78;86.65;101457.72;5070120;28;20179;-73
2021/03/07 05:18:19;;;;;;;1.57;1.47;;;;;;;0.76;86.51;101454.41;5070132;28;20223;-73
2021/03/07 05:20:45;;;;;;;0.60;0.60;;;;;;;0.76;85.95;101457.09;5070368;28;20179;-73
2021/03/07 05:23:10;;;;;;;0.87;0.50;;;;;;;0.72;86.49;101454.00;5070355;28;20179;-73
2021/03/07 05:25:36;;;;;;;0.77;0.77;;;;;;;0.70;86.89;101464.19;5070434;28;20162;-72
2021/03/07 05:28:02;;;;;;;0.97;0.97;;;;;;;0.68;86.24;101452.00;5069964;28;20258;-73
2021/03/07 05:30:27;;;;;;;1.00;0.90;;;;;;;0.67;86.81;101455.75;5070336;28;20675;-73
2021/03/07 05:32:53;;;;;;;0.97;0.93;;;;;;;0.66;86.20;101454.09;5070263;28;20179;-72
2021/03/07 05:35:19;;;;;;;1.13;0.97;;;;;;;0.63;86.85;101451.84;5070432;28;20631;-72
2021/03/07 05:37:44;;;;;;;0.60;0.60;;;;;;;0.59;86.66;101444.22;5069920;28;20582;-73
2021/03/07 05:40:10;;;;;;;0.50;0.50;;;;;;;0.58;86.47;101450.66;5074036;28;20555;-73
2021/03/07 05:42:36;;;;;;;6.57;0.73;;;;;;;0.56;86.74;101439.28;5074003;28;20269;-72
2021/03/07 05:45:02;;;;;;;0.47;0.43;;;;;;;0.54;86.82;101438.69;5073883;28;20175;-72
2021/03/07 05:47:27;;;;;;;0.30;0.30;;;;;;;0.53;86.22;101433.53;5073600;28;20236;-73
2021/03/07 05:49:54;;;;;;;0.50;0.50;;;;;;;0.54;86.10;101438.69;5073935;28;20595;-73
2021/03/07 05:52:23;;;;;;;0.20;0.20;;;;;;;0.56;86.34;101435.75;5073897;28;20178;-72
2021/03/07 05:54:51;;;;;;;1.97;1.87;;;;;;;0.56;86.10;101438.44;5073796;28;20421;-73
2021/03/07 05:57:19;;;;;;;0.70;0.70;;;;;;;0.56;85.86;101433.91;5073377;28;20421;-73
2021/03/07 05:59:45;;;;;;;1.53;1.43;;;;;;;0.55;86.75;101436.81;5073561;28;20464;-73
2021/03/07 06:02:14;;;;;;;1.40;1.27;;;;;;;0.56;86.51;101428.50;5072116;28;20482;-73
2021/03/07 06:04:44;;;;;;;0.77;0.47;;;;;;;0.56;86.24;101441.97;5073740;28;20308;-73
2021/03/07 06:07:09;;;;;;;0.77;0.77;;;;;;;0.55;86.36;101440.31;5073205;28;20458;-72
2021/03/07 06:09:36;;;;;;;4.23;1.90;;;;;;;0.56;86.50;101447.34;5072234;28;20452;-73
2021/03/07 06:12:02;;;;;;;0.57;0.57;;;;;;;0.53;86.43;101450.47;5073613;28;20546;-73
2021/03/07 06:14:28;;;;;;;1.23;1.13;;;;;;;0.51;87.17;101446.38;5072120;28;20421;-73
2021/03/07 06:17:03;;;;;;;0.10;0.00;;;;;;;0.53;87.01;101446.97;5072924;28;20453;-73
2021/03/07 06:19:30;;;;;;;0.90;0.90;;;;;;;0.52;86.79;101450.69;5073474;28;20995;-73
2021/03/07 06:21:56;;;;;;;0.20;0.20;;;;;;;0.48;87.24;101442.25;5071874;28;20843;-72
2021/03/07 06:24:39;;;;;;;0.57;0.57;;;;;;;0.49;87.02;101441.22;5073087;28;20767;-72
2021/03/07 06:27:06;;;;;;;0.33;0.33;;;;;;;0.49;86.93;101441.22;5072878;28;20794;-73
2021/03/07 06:29:31;;;;;;;0.00;0.00;;;;;;;0.50;86.70;101447.41;5073063;28;20424;-73
2021/03/07 06:31:57;;;;;;;0.00;0.00;;;;;;;0.54;86.52;101448.59;5073273;28;20417;-73
2021/03/07 06:34:22;;;;;;;0.27;0.27;;;;;;;0.56;86.48;101443.81;5073141;28;20596;-73
2021/03/07 06:36:48;;;;;;;0.10;0.10;;;;;;;0.59;86.19;101444.22;5072651;28;20174;-73
2021/03/07 06:39:14;;;;;;;0.63;0.63;;;;;;;0.58;86.30;101445.28;5072803;28;20627;-72
2021/03/07 06:41:40;;;;;;;0.10;0.10;;;;;;;0.60;86.42;101445.06;5072944;28;20295;-73
2021/03/07 06:44:14;;;;;;;0.43;0.43;;;;;;;0.62;86.28;101442.13;5072953;28;20440;-73
2021/03/07 06:46:43;;;;;;;1.20;1.20;;;;;;;0.62;86.15;101440.28;5072772;28;20182;-73
2021/03/07 06:49:27;;;;;;;0.97;0.63;;;;;;;0.63;86.43;101444.59;5072899;28;20421;-72
2021/03/07 06:51:52;;;;;;;0.30;0.30;;;;;;;0.64;86.32;101440.06;5072579;28;20405;-73
2021/03/07 06:54:21;;;;;;;0.77;0.77;;;;;;;0.64;85.85;101445.44;5071418;28;20421;-73
2021/03/07 06:56:48;;;;;;;1.37;1.27;;;;;;;0.66;86.86;101454.91;5072052;28;20209;-72
2021/03/07 06:59:15;;;;;;;1.60;1.50;;;;;;;0.67;86.73;101442.28;5072310;28;21114;-73
2021/03/07 07:01:51;;;;;;;1.60;1.50;;;;;;;0.70;86.63;101449.91;5071086;28;20878;-73
2021/03/07 07:04:18;;;;;;;0.10;0.10;;;;;;;0.71;86.44;101449.69;5072015;28;20413;-73
2021/03/07 07:07:09;;;;;;;1.20;1.20;;;;;;;0.70;86.47;101453.41;5071467;28;20417;-72
2021/03/07 07:09:35;;;;;;;0.10;0.10;;;;;;;0.72;86.88;101453.19;5071783;28;20889;-72
2021/03/07 07:12:02;;;;;;;0.57;0.57;;;;;;;0.74;87.00;101446.56;5072222;28;20416;-72
2021/03/07 07:14:41;;;;;;;0.10;0.10;;;;;;;0.76;86.39;101451.72;5071959;28;20453;-72
2021/03/07 07:17:17;;;;;;;2.37;1.93;;;;;;;0.80;86.55;101451.06;5070801;28;20405;-72
2021/03/07 07:19:44;;;;;;;0.40;0.30;;;;;;;0.85;86.89;101445.00;5071742;28;20472;-72
2021/03/07 07:22:12;;;;;;;0.00;0.00;;;;;;;0.90;86.36;101447.88;5072020;28;20420;-72
2021/03/07 07:24:38;;;;;;;2.13;1.90;;;;;;;0.96;86.13;101446.13;5071776;28;20425;-72
2021/03/07 07:27:04;;;;;;;0.60;0.60;;;;;;;1.03;85.72;101439.66;5070969;28;20897;-73
2021/03/07 07:29:29;;;;;;;0.30;0.30;;;;;;;1.10;84.61;101432.31;5071619;28;20413;-72
2021/03/07 07:32:01;;;;;;;0.30;0.30;;;;;;;1.15;84.08;101437.03;5071352;28;20174;-72
2021/03/07 07:34:30;;;;;;;0.23;0.23;;;;;;;1.19;84.04;101430.16;5070329;28;20271;-73
2021/03/07 07:37:06;;;;;;;0.70;0.70;;;;;;;1.22;84.76;101427.00;5070632;28;20424;-72
2021/03/07 07:39:40;;;;;;;1.03;0.87;;;;;;;1.26;84.94;101425.50;5071549;28;20506;-72
2021/03/07 07:42:24;;;;;;;0.30;0.30;;;;;;;1.27;84.38;101424.47;5071129;28;20435;-72
2021/03/07 07:44:49;;;;;;;0.27;0.27;;;;;;;1.23;84.42;101425.97;5071343;28;20417;-72
2021/03/07 07:47:16;;;;;;;14.03;1.00;;;;;;;1.23;84.59;101427.84;5070633;28;20760;-72
2021/03/07 07:49:46;;;;;;;0.37;0.37;;;;;;;1.22;84.54;101428.88;5071189;28;20527;-72
2021/03/07 07:52:23;;;;;;;1.10;1.03;;;;;;;1.24;84.84;101424.91;5071107;28;20478;-72
2021/03/07 07:55:00;;;;;;;1.20;1.07;;;;;;;1.29;84.89;101416.16;5070984;28;20452;-72
2021/03/07 07:57:31;;;;;;;2.10;2.00;;;;;;;1.34;84.66;101414.44;5070442;28;20409;-72
2021/03/07 07:59:56;;;;;;;0.20;0.20;;;;;;;1.35;83.66;101424.16;5069655;28;20500;-72
2021/03/07 08:02:46;;;;;;;0.20;0.20;;;;;;;1.37;83.19;101415.84;5070420;28;20456;-72
2021/03/07 08:05:20;;;;;;;0.70;0.70;;;;;;;1.39;82.73;101409.19;5070762;28;20182;-72
2021/03/07 08:07:57;;;;;;;0.87;0.60;;;;;;;1.46;82.40;101411.81;5070470;28;20420;-71
2021/03/07 08:10:40;;;;;;;3.40;1.50;;;;;;;1.45;81.87;101412.88;5070771;28;20431;-72
2021/03/07 08:13:10;;;;;;;0.50;0.50;;;;;;;1.49;81.92;101414.88;5066248;28;20444;-72
2021/03/07 08:15:44;;;;;;;0.07;0.07;;;;;;;1.59;80.94;101410.78;5070849;28;21077;-72
2021/03/07 08:18:10;;;;;;;0.30;0.30;;;;;;;1.64;79.96;101413.66;5070644;28;20443;-73
2021/03/07 08:20:42;;;;;;;0.27;0.27;;;;;;;1.68;80.02;101409.44;5070926;28;20468;-73
2021/03/07 08:23:12;;;;;;;0.63;0.63;;;;;;;1.68;79.87;101407.56;5069739;28;20428;-75
2021/03/07 08:25:47;;;;;;;0.10;0.10;;;;;;;1.69;78.92;101406.50;5070896;28;20513;-74
2021/03/07 08:28:27;;;;;;;0.63;0.63;;;;;;;1.70;78.31;101413.53;5069407;28;20782;-74
2021/03/07 08:30:57;;;;;;;0.47;0.47;;;;;;;1.74;77.87;101411.25;5069442;28;20519;-73
2021/03/07 08:33:40;;;;;;;0.00;0.00;;;;;;;1.73;77.45;101402.31;5071119;28;20512;-74
2021/03/07 08:36:11;;;;;;;1.03;1.03;;;;;;;1.76;77.37;101401.88;5070578;28;20425;-74
2021/03/07 08:38:56;;;;;;;0.17;0.17;;;;;;;1.79;77.69;101393.31;5070859;28;20974;-73
2021/03/07 08:41:34;;;;;;;0.57;0.57;;;;;;;1.83;77.41;101390.16;5063207;28;20715;-73
2021/03/07 08:44:00;;;;;;;0.00;0.00;;;;;;;1.83;77.40;101407.16;5069556;28;20413;-73
2021/03/07 08:46:28;;;;;;;0.17;0.17;;;;;;;1.77;76.95;101395.44;5070701;28;20416;-74
2021/03/07 08:49:10;;;;;;;0.30;0.30;;;;;;;1.72;77.72;101394.44;5070660;28;20444;-74
2021/03/07 08:51:38;;;;;;;0.10;0.10;;;;;;;1.78;78.63;101391.69;5070893;28;20503;-73
2021/03/07 08:54:07;;;;;;;0.07;0.07;;;;;;;1.88;78.27;101377.66;5071055;28;20455;-72
2021/03/07 08:56:32;;;;;;;0.00;0.00;;;;;;;1.91;77.99;101373.69;5070225;28;20412;-72
2021/03/07 08:58:58;;;;;;;1.13;1.13;;;;;;;1.89;77.64;101370.41;5069307;28;20522;-72
2021/03/07 09:01:26;;;;;;;1.37;1.27;;;;;;;1.84;77.49;101375.63;5070585;28;20216;-72
2021/03/07 09:03:57;;;;;;;0.70;0.67;;;;;;;1.83;77.74;101382.09;5070603;28;20205;-72
2021/03/07 09:06:37;;;;;;;0.07;0.07;;;;;;;1.83;77.83;101385.59;5070258;28;20424;-72
2021/03/07 09:09:03;;;;;;;0.50;0.50;;;;;;;1.87;78.07;101372.47;5050613;28;20434;-72
2021/03/07 09:11:28;;;;;;;0.40;0.40;;;;;;;1.90;78.05;101369.34;5050531;28;20536;-72
2021/03/07 09:13:54;;;;;;;0.87;0.83;;;;;;;1.96;78.08;101366.53;5052479;28;20585;-72
2021/03/07 09:16:19;;;;;;;0.30;0.30;;;;;;;2.02;77.67;101372.84;5054077;28;20175;-72
2021/03/07 09:18:45;;;;;;;25.27;1.53;;;;;;;2.04;77.72;101368.91;5054458;28;20218;-72
2021/03/07 09:21:12;;;;;;;0.60;0.60;;;;;;;2.14;77.55;101362.91;5054438;28;20175;-72
2021/03/07 09:23:37;;;;;;;0.30;0.30;;;;;;;2.15;77.33;101364.56;5053175;28;20545;-72
2021/03/07 09:26:16;;;;;;;0.93;0.93;;;;;;;2.20;78.21;101362.00;5055663;28;20438;-72
2021/03/07 09:28:49;;;;;;;0.50;0.50;;;;;;;2.19;77.05;101357.66;5072941;28;20178;-72
2021/03/07 09:31:18;;;;;;;0.17;0.17;;;;;;;2.18;77.08;101356.03;5072241;28;20508;-72
2021/03/07 09:34:03;;;;;;;0.03;0.03;;;;;;;2.22;74.80;101357.19;5074255;28;20413;-72
2021/03/07 09:36:37;;;;;;;1.00;0.90;;;;;;;2.29;73.28;101351.69;5072276;28;20511;-71
2021/03/07 09:39:07;;;;;;;0.43;0.30;;;;;;;2.42;72.97;101350.63;5074072;28;20457;-72
2021/03/07 09:41:37;;;;;;;0.37;0.37;;;;;;;2.47;70.35;101356.97;5073941;28;20923;-72
2021/03/07 09:44:06;;;;;;;0.00;0.00;;;;;;;2.54;71.58;101354.16;5074169;28;20416;-72
2021/03/07 09:46:32;;;;;;;0.77;0.43;;;;;;;2.56;70.69;101339.38;5073608;28;20413;-72
2021/03/07 09:49:04;;;;;;;0.77;0.53;;;;;;;2.57;69.34;101346.41;5073885;28;20470;-72
2021/03/07 09:51:32;;;;;;;0.00;0.00;;;;;;;2.62;69.46;101343.00;5072499;28;20269;-71
2021/03/07 09:53:58;;;;;;;0.20;0.20;;;;;;;2.69;68.90;101349.09;5072549;28;20440;-72
2021/03/07 09:56:28;;;;;;;0.53;0.53;;;;;;;2.80;69.61;101344.75;5072142;28;20539;-72
2021/03/07 09:58:54;;;;;;;0.23;0.23;;;;;;;2.68;69.08;101350.16;5073779;28;20210;-72
2021/03/07 10:01:20;;;;;;;0.47;0.47;;;;;;;2.68;68.06;101336.66;5073544;28;20175;-72
2021/03/07 10:03:45;;;;;;;1.60;1.50;;;;;;;2.66;65.18;101333.38;5075986;28;20174;-71
2021/03/07 10:06:20;;;;;;;0.57;0.40;;;;;;;2.68;65.51;101333.97;5073690;28;20532;-72
2021/03/07 10:09:02;;;;;;;0.47;0.40;;;;;;;2.78;65.81;101336.88;5073604;28;20189;-72
2021/03/07 10:11:27;;;;;;;1.10;0.93;;;;;;;2.81;65.56;101336.41;5073820;28;20455;-72
2021/03/07 10:14:01;;;;;;;0.20;0.20;;;;;;;2.73;65.23;101346.72;5073224;28;20202;-72
2021/03/07 10:16:29;;;;;;;0.30;0.20;;;;;;;2.74;65.20;101338.38;5072814;28;20648;-72
2021/03/07 10:19:14;;;;;;;0.10;0.10;;;;;;;2.83;65.80;101345.06;5073009;28;20463;-72
2021/03/07 10:21:42;;;;;;;0.93;0.30;;;;;;;2.87;65.30;101327.34;5073216;28;20421;-72
2021/03/07 10:24:13;;;;;;;0.00;0.00;;;;;;;2.83;65.32;101347.78;5073019;28;20170;-72
2021/03/07 10:26:40;;;;;;;0.17;0.17;;;;;;;2.85;66.01;101345.66;5071977;28;20270;-72
2021/03/07 10:29:26;;;;;;;0.20;0.20;;;;;;;2.84;65.66;101345.91;5072957;28;20190;-72
2021/03/07 10:32:16;;;;;;;0.13;0.10;;;;;;;2.76;65.63;101332.78;5072962;28;20455;-72
2021/03/07 10:34:44;;;;;;;0.00;0.00;;;;;;;2.72;65.91;101335.13;5072889;28;20171;-72
2021/03/07 10:37:37;;;;;;;0.10;0.10;;;;;;;2.64;65.49;101332.81;5072333;28;20441;-72
2021/03/07 10:40:10;;;;;;;0.00;0.00;;;;;;;2.57;66.25;101327.50;5072742;28;20456;-72
2021/03/07 10:42:38;;;;;;;0.57;0.57;;;;;;;2.64;66.77;101332.81;5072941;28;20916;-72
2021/03/07 10:45:16;;;;;;;0.10;0.10;;;;;;;2.73;66.28;101330.53;5072638;28;20494;-72
2021/03/07 10:47:43;;;;;;;0.30;0.30;;;;;;;2.73;65.85;101325.97;5072301;28;20420;-72
2021/03/07 10:50:09;;;;;;;0.20;0.20;;;;;;;2.77;65.85;101321.75;5072580;28;20484;-72
2021/03/07 10:52:34;;;;;;;0.83;0.83;;;;;;;2.73;65.38;101328.66;5071355;28;20418;-72
2021/03/07 10:55:00;;;;;;;0.03;0.03;;;;;;;2.80;66.12;101323.97;5071209;28;20940;-72
2021/03/07 10:57:25;;;;;;;0.00;0.00;;;;;;;2.87;65.79;101324.63;5072020;28;20251;-72
2021/03/07 10:59:52;;;;;;;0.80;0.70;;;;;;;2.95;64.62;101315.38;5072365;28;20213;-72
2021/03/07 11:02:18;;;;;;;0.00;0.00;;;;;;;2.98;63.67;101321.09;5072397;28;20177;-72
2021/03/07 11:04:45;;;;;;;8.70;3.23;;;;;;;2.94;64.45;101311.84;5072296;28;20413;-72
2021/03/07 11:07:10;;;;;;;0.20;0.10;;;;;;;3.06;63.75;101311.00;5071931;28;20780;-72
2021/03/07 11:09:36;;;;;;;0.00;0.00;;;;;;;3.14;63.09;101316.00;5072439;28;20421;-77
2021/03/07 11:12:01;;;;;;;0.10;0.00;;;;;;;3.07;61.24;101312.63;5072440;28;20182;-74
2021/03/07 11:14:26;;;;;;;0.43;0.40;;;;;;;3.13;61.88;101317.06;5072804;28;20273;-72
2021/03/07 11:16:52;;;;;;;0.17;0.17;;;;;;;3.17;61.99;101304.72;5071664;28;20171;-72
2021/03/07 11:19:17;;;;;;;1.00;0.53;;;;;;;3.23;62.02;101301.06;5071960;28;20343;-72
2021/03/07 11:21:43;;;;;;;0.20;0.20;;;;;;;3.20;61.65;101305.06;5072437;28;20881;-72
2021/03/07 11:24:09;;;;;;;0.20;0.20;;;;;;;3.16;61.61;101297.66;5072208;28;20171;-72
2021/03/07 11:26:35;;;;;;;0.10;0.10;;;;;;;3.13;63.11;101298.97;5071590;28;20174;-72
2021/03/07 11:29:00;;;;;;;0.10;0.10;;;;;;;3.16;62.38;101295.78;5072168;28;20516;-72
2021/03/07 11:31:26;;;;;;;0.10;0.10;;;;;;;3.14;63.26;101291.69;5071627;28;20186;-72
2021/03/07 11:33:51;;;;;;;0.30;0.27;;;;;;;3.12;62.69;101294.66;5070497;28;20184;-72
2021/03/07 11:36:16;;;;;;;0.17;0.17;;;;;;;3.10;62.21;101287.84;5071501;28;20205;-72
2021/03/07 11:38:42;;;;;;;0.20;0.20;;;;;;;3.13;63.09;101281.97;5071423;28;20182;-72
2021/03/07 11:41:07;;;;;;;0.03;0.03;;;;;;;3.21;62.24;101281.59;5071692;28;20202;-72